Accueil
METAR-TAF:

METAR-TAF

Aéroports :

Aéroport de Lemnos

Lemnos, Grèce

latitude: 39-55N, longitude: 025-14E, altitude: 5 m

Observation

Le bulletin a été fait il y a 32 minutes, à 07:20 UTC
Vent 14 kt de nord-est avec des rafales jusqu'à 24 kt
Température 11°C
Humidité 62%
Pression 1024 hPa
Visibilité 10 km ou plus
Quelques nuages à une hauteur de 1500 ft

METAR: LGLM 160720Z 05014G24KT 9999 FEW015 11/04 Q1024

Heure: 09:52 (07:52 UTC)

Prévision

Le bulletin a été fait il y a 2 heures et 52 minutes, à 05:00 UTC
Prévision valable du 16 à 06 UTC au 16 à 15 UTC
Vent 15 kt de nord-est avec des rafales jusqu'à 25 kt
Visibilité 10 km ou plus
Nuages épars à une hauteur de 2500 ft

TAF: LGLM 160500Z 1606/1615 05015G25KT 9999 SCT025

Observations et prévisions météorologiques de plus de 4000 aéroports (messages METAR et TAF).

Les stations disponibles sont représentées par des disques jaunes et rouges sur la carte.

Passer la souris dessus pour voir le nom de la station.

Cliquer dessus pour voir les observations et prévisions météorologiques.

Pour changer de carte: cliquez sur les boutons verts avec une croix noire pour zoomer, sur le bouton vert avec un tiret pour effectuer un zoom arrière, ou sur les flèches vertes pour les cartes adjacentes.


METAR-TAF: